sensor_id;sensor_type;location;lat;lon;timestamp;temperature;humidity
3954;DHT22;1991;48.682;9.030;2024-02-26T00:02:16;6.90;93.40
3954;DHT22;1991;48.682;9.030;2024-02-26T00:04:42;6.90;93.70
3954;DHT22;1991;48.682;9.030;2024-02-26T00:07:07;6.90;93.70
3954;DHT22;1991;48.682;9.030;2024-02-26T00:09:33;6.90;93.50
3954;DHT22;1991;48.682;9.030;2024-02-26T00:12:02;6.90;93.50
3954;DHT22;1991;48.682;9.030;2024-02-26T00:14:29;6.80;92.70
3954;DHT22;1991;48.682;9.030;2024-02-26T00:16:55;6.80;93.00
3954;DHT22;1991;48.682;9.030;2024-02-26T00:19:21;6.80;93.60
3954;DHT22;1991;48.682;9.030;2024-02-26T00:21:46;6.80;94.00
3954;DHT22;1991;48.682;9.030;2024-02-26T00:24:12;6.80;94.10
3954;DHT22;1991;48.682;9.030;2024-02-26T00:26:38;6.90;93.30
3954;DHT22;1991;48.682;9.030;2024-02-26T00:29:03;6.90;92.30
3954;DHT22;1991;48.682;9.030;2024-02-26T00:31:29;7.00;91.00
3954;DHT22;1991;48.682;9.030;2024-02-26T00:33:55;7.00;90.20
3954;DHT22;1991;48.682;9.030;2024-02-26T00:36:21;7.10;89.20
3954;DHT22;1991;48.682;9.030;2024-02-26T00:38:46;7.10;88.60
3954;DHT22;1991;48.682;9.030;2024-02-26T00:41:19;7.20;86.40
3954;DHT22;1991;48.682;9.030;2024-02-26T00:43:45;7.20;86.00
3954;DHT22;1991;48.682;9.030;2024-02-26T00:46:11;7.30;84.50
3954;DHT22;1991;48.682;9.030;2024-02-26T00:48:37;7.40;85.00
3954;DHT22;1991;48.682;9.030;2024-02-26T00:51:03;7.40;84.50
3954;DHT22;1991;48.682;9.030;2024-02-26T00:53:31;7.40;84.60
3954;DHT22;1991;48.682;9.030;2024-02-26T00:55:57;7.40;84.40
3954;DHT22;1991;48.682;9.030;2024-02-26T00:58:24;7.30;86.10
3954;DHT22;1991;48.682;9.030;2024-02-26T01:00:50;7.30;85.80
3954;DHT22;1991;48.682;9.030;2024-02-26T01:03:16;7.30;86.80
3954;DHT22;1991;48.682;9.030;2024-02-26T01:05:42;7.30;85.10
3954;DHT22;1991;48.682;9.030;2024-02-26T01:08:08;7.20;83.60
3954;DHT22;1991;48.682;9.030;2024-02-26T01:10:33;7.20;82.60
3954;DHT22;1991;48.682;9.030;2024-02-26T01:12:59;7.20;86.00
3954;DHT22;1991;48.682;9.030;2024-02-26T01:15:25;7.10;87.20
3954;DHT22;1991;48.682;9.030;2024-02-26T01:17:51;7.00;86.90
3954;DHT22;1991;48.682;9.030;2024-02-26T01:20:16;7.10;85.80
3954;DHT22;1991;48.682;9.030;2024-02-26T01:22:43;7.10;84.70
3954;DHT22;1991;48.682;9.030;2024-02-26T01:25:09;7.10;84.00
3954;DHT22;1991;48.682;9.030;2024-02-26T01:27:38;7.10;84.30
3954;DHT22;1991;48.682;9.030;2024-02-26T01:30:07;7.10;83.80
3954;DHT22;1991;48.682;9.030;2024-02-26T01:32:32;7.10;83.40
3954;DHT22;1991;48.682;9.030;2024-02-26T01:34:58;7.10;83.90
3954;DHT22;1991;48.682;9.030;2024-02-26T01:37:24;7.10;83.80
3954;DHT22;1991;48.682;9.030;2024-02-26T01:39:49;7.10;84.00
3954;DHT22;1991;48.682;9.030;2024-02-26T01:42:15;7.10;83.60
3954;DHT22;1991;48.682;9.030;2024-02-26T01:44:40;7.10;83.30
3954;DHT22;1991;48.682;9.030;2024-02-26T01:47:09;7.10;83.50
3954;DHT22;1991;48.682;9.030;2024-02-26T01:49:36;7.20;83.10
3954;DHT22;1991;48.682;9.030;2024-02-26T01:52:03;7.20;81.90
3954;DHT22;1991;48.682;9.030;2024-02-26T01:54:30;7.30;81.70
3954;DHT22;1991;48.682;9.030;2024-02-26T01:56:56;7.20;81.60
3954;DHT22;1991;48.682;9.030;2024-02-26T01:59:23;7.20;81.60
3954;DHT22;1991;48.682;9.030;2024-02-26T02:01:53;7.30;80.90
3954;DHT22;1991;48.682;9.030;2024-02-26T02:04:20;7.30;81.60
3954;DHT22;1991;48.682;9.030;2024-02-26T02:06:47;7.40;84.10
3954;DHT22;1991;48.682;9.030;2024-02-26T02:09:13;7.50;88.20
3954;DHT22;1991;48.682;9.030;2024-02-26T02:11:39;7.50;91.20
3954;DHT22;1991;48.682;9.030;2024-02-26T02:14:04;7.50;91.30
3954;DHT22;1991;48.682;9.030;2024-02-26T02:16:30;7.50;92.80
3954;DHT22;1991;48.682;9.030;2024-02-26T02:18:55;7.40;94.20
3954;DHT22;1991;48.682;9.030;2024-02-26T02:21:21;7.40;94.40
3954;DHT22;1991;48.682;9.030;2024-02-26T02:23:47;7.40;97.10
3954;DHT22;1991;48.682;9.030;2024-02-26T02:26:15;7.40;97.80
3954;DHT22;1991;48.682;9.030;2024-02-26T02:28:41;7.40;98.50
3954;DHT22;1991;48.682;9.030;2024-02-26T02:31:07;7.40;99.90
3954;DHT22;1991;48.682;9.030;2024-02-26T02:33:34;7.40;97.10
3954;DHT22;1991;48.682;9.030;2024-02-26T02:36:00;7.50;95.30
3954;DHT22;1991;48.682;9.030;2024-02-26T02:38:25;7.60;93.10
3954;DHT22;1991;48.682;9.030;2024-02-26T02:40:53;7.70;91.90
3954;DHT22;1991;48.682;9.030;2024-02-26T02:43:19;7.70;92.10
3954;DHT22;1991;48.682;9.030;2024-02-26T02:45:44;7.70;91.20
3954;DHT22;1991;48.682;9.030;2024-02-26T02:48:11;7.70;90.20
3954;DHT22;1991;48.682;9.030;2024-02-26T02:50:37;7.70;89.50
3954;DHT22;1991;48.682;9.030;2024-02-26T02:53:02;7.70;90.30
3954;DHT22;1991;48.682;9.030;2024-02-26T02:55:28;7.80;90.30
3954;DHT22;1991;48.682;9.030;2024-02-26T02:57:53;7.80;91.20
3954;DHT22;1991;48.682;9.030;2024-02-26T03:00:19;7.80;92.00
3954;DHT22;1991;48.682;9.030;2024-02-26T03:02:45;7.70;92.70
3954;DHT22;1991;48.682;9.030;2024-02-26T03:05:11;7.70;91.50
3954;DHT22;1991;48.682;9.030;2024-02-26T03:07:37;7.70;92.20
3954;DHT22;1991;48.682;9.030;2024-02-26T03:10:03;7.70;91.60
3954;DHT22;1991;48.682;9.030;2024-02-26T03:12:29;7.80;91.40
3954;DHT22;1991;48.682;9.030;2024-02-26T03:14:55;7.90;92.00
3954;DHT22;1991;48.682;9.030;2024-02-26T03:17:21;7.90;93.20
3954;DHT22;1991;48.682;9.030;2024-02-26T03:19:47;7.90;93.80
3954;DHT22;1991;48.682;9.030;2024-02-26T03:22:13;7.90;93.00
3954;DHT22;1991;48.682;9.030;2024-02-26T03:24:38;7.90;92.80
3954;DHT22;1991;48.682;9.030;2024-02-26T03:27:04;7.80;93.10
3954;DHT22;1991;48.682;9.030;2024-02-26T03:29:35;7.70;93.50
3954;DHT22;1991;48.682;9.030;2024-02-26T03:32:01;7.70;94.90
3954;DHT22;1991;48.682;9.030;2024-02-26T03:34:26;7.60;95.30
3954;DHT22;1991;48.682;9.030;2024-02-26T03:36:52;7.60;96.70
3954;DHT22;1991;48.682;9.030;2024-02-26T03:39:18;7.60;97.60
3954;DHT22;1991;48.682;9.030;2024-02-26T03:41:43;7.50;98.00
3954;DHT22;1991;48.682;9.030;2024-02-26T03:44:09;7.50;98.20
3954;DHT22;1991;48.682;9.030;2024-02-26T03:46:35;7.60;99.30
3954;DHT22;1991;48.682;9.030;2024-02-26T03:49:00;7.50;99.90
3954;DHT22;1991;48.682;9.030;2024-02-26T03:51:26;7.50;99.90
3954;DHT22;1991;48.682;9.030;2024-02-26T03:53:59;7.50;99.90
3954;DHT22;1991;48.682;9.030;2024-02-26T03:56:26;7.50;99.90
3954;DHT22;1991;48.682;9.030;2024-02-26T03:58:52;7.40;99.90
3954;DHT22;1991;48.682;9.030;2024-02-26T04:01:17;7.30;99.90
3954;DHT22;1991;48.682;9.030;2024-02-26T04:03:43;7.30;99.90
3954;DHT22;1991;48.682;9.030;2024-02-26T04:06:09;7.30;99.90
3954;DHT22;1991;48.682;9.030;2024-02-26T04:08:36;7.30;99.90
3954;DHT22;1991;48.682;9.030;2024-02-26T04:11:02;7.30;99.90
3954;DHT22;1991;48.682;9.030;2024-02-26T04:13:32;7.30;99.90
3954;DHT22;1991;48.682;9.030;2024-02-26T04:15:58;7.20;99.90
3954;DHT22;1991;48.682;9.030;2024-02-26T04:18:26;7.20;99.90
3954;DHT22;1991;48.682;9.030;2024-02-26T04:20:52;7.10;99.90
3954;DHT22;1991;48.682;9.030;2024-02-26T04:23:18;7.10;99.90
3954;DHT22;1991;48.682;9.030;2024-02-26T04:25:44;7.10;99.90
3954;DHT22;1991;48.682;9.030;2024-02-26T04:28:09;7.00;99.90
3954;DHT22;1991;48.682;9.030;2024-02-26T04:30:35;7.00;99.90
3954;DHT22;1991;48.682;9.030;2024-02-26T04:33:01;7.10;99.90
3954;DHT22;1991;48.682;9.030;2024-02-26T04:35:26;7.10;99.90
3954;DHT22;1991;48.682;9.030;2024-02-26T04:37:52;7.20;99.90
3954;DHT22;1991;48.682;9.030;2024-02-26T04:40:17;7.20;99.90
3954;DHT22;1991;48.682;9.030;2024-02-26T04:42:43;7.30;99.90
3954;DHT22;1991;48.682;9.030;2024-02-26T04:45:08;7.40;99.90
3954;DHT22;1991;48.682;9.030;2024-02-26T04:47:34;7.50;99.90
3954;DHT22;1991;48.682;9.030;2024-02-26T04:50:00;7.50;99.60
3954;DHT22;1991;48.682;9.030;2024-02-26T04:52:25;7.60;99.80
3954;DHT22;1991;48.682;9.030;2024-02-26T04:54:51;7.60;99.90
3954;DHT22;1991;48.682;9.030;2024-02-26T04:57:17;7.60;99.80
3954;DHT22;1991;48.682;9.030;2024-02-26T04:59:44;7.60;99.90
3954;DHT22;1991;48.682;9.030;2024-02-26T05:02:11;7.60;99.50
3954;DHT22;1991;48.682;9.030;2024-02-26T05:04:37;7.60;99.40
3954;DHT22;1991;48.682;9.030;2024-02-26T05:07:03;7.50;99.80
3954;DHT22;1991;48.682;9.030;2024-02-26T05:09:29;7.50;99.90
3954;DHT22;1991;48.682;9.030;2024-02-26T05:11:54;7.50;99.90
3954;DHT22;1991;48.682;9.030;2024-02-26T05:14:20;7.40;99.90
3954;DHT22;1991;48.682;9.030;2024-02-26T05:16:45;7.30;99.90
3954;DHT22;1991;48.682;9.030;2024-02-26T05:19:11;7.30;99.90
3954;DHT22;1991;48.682;9.030;2024-02-26T05:21:37;7.20;99.90
3954;DHT22;1991;48.682;9.030;2024-02-26T05:24:02;7.20;99.90
3954;DHT22;1991;48.682;9.030;2024-02-26T05:26:28;7.20;99.90
3954;DHT22;1991;48.682;9.030;2024-02-26T05:28:54;7.00;99.90
3954;DHT22;1991;48.682;9.030;2024-02-26T05:31:25;6.90;99.90
3954;DHT22;1991;48.682;9.030;2024-02-26T05:33:50;6.80;99.90
3954;DHT22;1991;48.682;9.030;2024-02-26T05:36:20;6.80;99.90
3954;DHT22;1991;48.682;9.030;2024-02-26T05:38:47;6.80;99.90
3954;DHT22;1991;48.682;9.030;2024-02-26T05:41:15;6.80;99.90
3954;DHT22;1991;48.682;9.030;2024-02-26T05:43:41;6.80;99.90
3954;DHT22;1991;48.682;9.030;2024-02-26T05:46:06;6.80;99.90
3954;DHT22;1991;48.682;9.030;2024-02-26T05:48:32;6.80;99.90
3954;DHT22;1991;48.682;9.030;2024-02-26T05:50:57;6.80;99.90
3954;DHT22;1991;48.682;9.030;2024-02-26T05:53:23;6.60;99.90
3954;DHT22;1991;48.682;9.030;2024-02-26T05:55:48;6.40;99.90
3954;DHT22;1991;48.682;9.030;2024-02-26T05:58:14;6.20;99.90
3954;DHT22;1991;48.682;9.030;2024-02-26T06:00:39;6.10;99.90
3954;DHT22;1991;48.682;9.030;2024-02-26T06:03:05;6.10;99.90
3954;DHT22;1991;48.682;9.030;2024-02-26T06:05:31;6.10;99.90
3954;DHT22;1991;48.682;9.030;2024-02-26T06:07:56;6.20;99.90
3954;DHT22;1991;48.682;9.030;2024-02-26T06:10:22;6.10;99.90
3954;DHT22;1991;48.682;9.030;2024-02-26T06:12:47;6.20;99.90
3954;DHT22;1991;48.682;9.030;2024-02-26T06:15:13;6.20;99.90
3954;DHT22;1991;48.682;9.030;2024-02-26T06:17:39;6.20;99.90
3954;DHT22;1991;48.682;9.030;2024-02-26T06:20:05;6.20;99.90
3954;DHT22;1991;48.682;9.030;2024-02-26T06:22:32;6.20;99.90
3954;DHT22;1991;48.682;9.030;2024-02-26T06:24:57;6.20;99.90
3954;DHT22;1991;48.682;9.030;2024-02-26T06:27:23;6.20;99.90
3954;DHT22;1991;48.682;9.030;2024-02-26T06:29:50;6.10;99.90
3954;DHT22;1991;48.682;9.030;2024-02-26T06:32:15;6.10;99.90
3954;DHT22;1991;48.682;9.030;2024-02-26T06:34:41;6.00;99.90
3954;DHT22;1991;48.682;9.030;2024-02-26T06:37:08;6.00;99.90
3954;DHT22;1991;48.682;9.030;2024-02-26T06:39:33;6.00;99.90
3954;DHT22;1991;48.682;9.030;2024-02-26T06:41:59;6.00;99.90
3954;DHT22;1991;48.682;9.030;2024-02-26T06:44:28;6.10;99.90
3954;DHT22;1991;48.682;9.030;2024-02-26T06:47:00;6.10;99.90
3954;DHT22;1991;48.682;9.030;2024-02-26T06:49:27;6.20;99.90
3954;DHT22;1991;48.682;9.030;2024-02-26T06:51:53;6.30;99.90
3954;DHT22;1991;48.682;9.030;2024-02-26T06:54:18;6.30;99.90
3954;DHT22;1991;48.682;9.030;2024-02-26T06:56:44;6.50;99.90
3954;DHT22;1991;48.682;9.030;2024-02-26T06:59:10;6.60;99.90
3954;DHT22;1991;48.682;9.030;2024-02-26T07:01:35;6.70;99.90
3954;DHT22;1991;48.682;9.030;2024-02-26T07:04:01;6.80;99.90
3954;DHT22;1991;48.682;9.030;2024-02-26T07:06:30;6.80;99.90
3954;DHT22;1991;48.682;9.030;2024-02-26T07:08:55;6.90;99.90
3954;DHT22;1991;48.682;9.030;2024-02-26T07:11:21;7.00;99.90
3954;DHT22;1991;48.682;9.030;2024-02-26T07:13:47;7.00;99.90
3954;DHT22;1991;48.682;9.030;2024-02-26T07:16:12;7.00;99.90
3954;DHT22;1991;48.682;9.030;2024-02-26T07:18:41;7.10;99.90
3954;DHT22;1991;48.682;9.030;2024-02-26T07:21:09;7.10;99.90
3954;DHT22;1991;48.682;9.030;2024-02-26T07:23:34;7.10;99.90
3954;DHT22;1991;48.682;9.030;2024-02-26T07:26:00;7.10;99.90
3954;DHT22;1991;48.682;9.030;2024-02-26T07:28:26;7.20;99.90
3954;DHT22;1991;48.682;9.030;2024-02-26T07:30:51;7.30;99.90
3954;DHT22;1991;48.682;9.030;2024-02-26T07:33:17;7.40;99.90
3954;DHT22;1991;48.682;9.030;2024-02-26T07:35:42;7.50;99.90
3954;DHT22;1991;48.682;9.030;2024-02-26T07:38:08;7.60;99.90
3954;DHT22;1991;48.682;9.030;2024-02-26T07:40:34;7.70;99.90
3954;DHT22;1991;48.682;9.030;2024-02-26T07:42:59;7.80;99.90
3954;DHT22;1991;48.682;9.030;2024-02-26T07:45:25;7.90;99.90
3954;DHT22;1991;48.682;9.030;2024-02-26T07:47:50;8.10;99.90
3954;DHT22;1991;48.682;9.030;2024-02-26T07:50:17;8.20;99.90
3954;DHT22;1991;48.682;9.030;2024-02-26T07:52:43;8.30;99.90
3954;DHT22;1991;48.682;9.030;2024-02-26T07:55:09;8.40;99.90
3954;DHT22;1991;48.682;9.030;2024-02-26T07:57:35;8.50;99.90
3954;DHT22;1991;48.682;9.030;2024-02-26T08:00:01;8.60;99.90
3954;DHT22;1991;48.682;9.030;2024-02-26T08:02:27;8.60;99.90
3954;DHT22;1991;48.682;9.030;2024-02-26T08:04:53;8.70;99.90
3954;DHT22;1991;48.682;9.030;2024-02-26T08:07:18;8.90;99.90
3954;DHT22;1991;48.682;9.030;2024-02-26T08:09:45;9.00;99.90
3954;DHT22;1991;48.682;9.030;2024-02-26T08:12:11;9.00;99.90
3954;DHT22;1991;48.682;9.030;2024-02-26T08:14:37;9.00;99.90
3954;DHT22;1991;48.682;9.030;2024-02-26T08:17:03;9.10;99.90
3954;DHT22;1991;48.682;9.030;2024-02-26T08:19:28;9.20;99.90
3954;DHT22;1991;48.682;9.030;2024-02-26T08:21:54;9.20;99.90
3954;DHT22;1991;48.682;9.030;2024-02-26T08:24:20;9.20;99.90
3954;DHT22;1991;48.682;9.030;2024-02-26T08:26:45;9.30;99.90
3954;DHT22;1991;48.682;9.030;2024-02-26T08:29:11;9.40;99.90
3954;DHT22;1991;48.682;9.030;2024-02-26T08:31:37;9.50;99.90
3954;DHT22;1991;48.682;9.030;2024-02-26T08:34:03;9.60;99.90
3954;DHT22;1991;48.682;9.030;2024-02-26T08:36:30;9.70;99.90
3954;DHT22;1991;48.682;9.030;2024-02-26T08:38:56;9.80;99.90
3954;DHT22;1991;48.682;9.030;2024-02-26T08:41:21;9.70;99.90
3954;DHT22;1991;48.682;9.030;2024-02-26T08:43:47;9.70;99.90
3954;DHT22;1991;48.682;9.030;2024-02-26T08:46:13;9.70;99.90
3954;DHT22;1991;48.682;9.030;2024-02-26T08:48:39;9.60;99.90
3954;DHT22;1991;48.682;9.030;2024-02-26T08:51:06;9.60;99.90
3954;DHT22;1991;48.682;9.030;2024-02-26T08:53:32;9.60;99.90
3954;DHT22;1991;48.682;9.030;2024-02-26T08:55:58;9.50;99.90
3954;DHT22;1991;48.682;9.030;2024-02-26T08:58:23;9.50;99.90
3954;DHT22;1991;48.682;9.030;2024-02-26T09:00:49;9.60;99.90
3954;DHT22;1991;48.682;9.030;2024-02-26T09:03:14;9.80;99.90
3954;DHT22;1991;48.682;9.030;2024-02-26T09:05:40;9.90;99.90
3954;DHT22;1991;48.682;9.030;2024-02-26T09:08:06;10.00;99.90
3954;DHT22;1991;48.682;9.030;2024-02-26T09:10:31;10.10;99.90
3954;DHT22;1991;48.682;9.030;2024-02-26T09:12:58;10.10;99.50
3954;DHT22;1991;48.682;9.030;2024-02-26T09:15:23;10.20;99.20
3954;DHT22;1991;48.682;9.030;2024-02-26T09:17:49;10.10;99.00
3954;DHT22;1991;48.682;9.030;2024-02-26T09:20:16;10.10;98.20
3954;DHT22;1991;48.682;9.030;2024-02-26T09:22:45;10.00;98.70
3954;DHT22;1991;48.682;9.030;2024-02-26T09:25:11;10.00;98.50
3954;DHT22;1991;48.682;9.030;2024-02-26T09:27:37;10.10;98.30
3954;DHT22;1991;48.682;9.030;2024-02-26T09:30:03;10.30;98.50
3954;DHT22;1991;48.682;9.030;2024-02-26T09:32:28;10.70;98.50
3954;DHT22;1991;48.682;9.030;2024-02-26T09:34:54;10.90;97.70
3954;DHT22;1991;48.682;9.030;2024-02-26T09:37:19;11.30;97.40
3954;DHT22;1991;48.682;9.030;2024-02-26T09:39:45;11.70;95.10
3954;DHT22;1991;48.682;9.030;2024-02-26T09:42:12;12.50;93.40
3954;DHT22;1991;48.682;9.030;2024-02-26T09:44:40;14.50;90.80
3954;DHT22;1991;48.682;9.030;2024-02-26T09:47:09;15.90;80.90
3954;DHT22;1991;48.682;9.030;2024-02-26T09:49:36;16.70;74.50
3954;DHT22;1991;48.682;9.030;2024-02-26T09:52:04;18.30;68.80
3954;DHT22;1991;48.682;9.030;2024-02-26T09:54:30;18.40;64.70
3954;DHT22;1991;48.682;9.030;2024-02-26T09:57:00;18.20;62.40
3954;DHT22;1991;48.682;9.030;2024-02-26T09:59:27;17.70;62.80
3954;DHT22;1991;48.682;9.030;2024-02-26T10:01:54;17.50;63.80
3954;DHT22;1991;48.682;9.030;2024-02-26T10:04:20;17.60;63.90
3954;DHT22;1991;48.682;9.030;2024-02-26T10:06:47;17.80;63.60
3954;DHT22;1991;48.682;9.030;2024-02-26T10:09:12;18.80;61.30
3954;DHT22;1991;48.682;9.030;2024-02-26T10:11:41;20.60;57.60
3954;DHT22;1991;48.682;9.030;2024-02-26T10:14:08;22.90;51.90
3954;DHT22;1991;48.682;9.030;2024-02-26T10:16:35;23.50;49.80
3954;DHT22;1991;48.682;9.030;2024-02-26T10:19:00;24.40;47.50
3954;DHT22;1991;48.682;9.030;2024-02-26T10:21:26;24.40;44.40
3954;DHT22;1991;48.682;9.030;2024-02-26T10:23:52;23.70;45.00
3954;DHT22;1991;48.682;9.030;2024-02-26T10:26:18;22.70;45.80
3954;DHT22;1991;48.682;9.030;2024-02-26T10:28:45;21.60;47.10
3954;DHT22;1991;48.682;9.030;2024-02-26T10:31:11;20.50;48.30
3954;DHT22;1991;48.682;9.030;2024-02-26T10:33:38;19.50;50.00
3954;DHT22;1991;48.682;9.030;2024-02-26T10:36:05;18.60;52.20
3954;DHT22;1991;48.682;9.030;2024-02-26T10:38:31;18.20;54.10
3954;DHT22;1991;48.682;9.030;2024-02-26T10:40:57;18.10;54.50
3954;DHT22;1991;48.682;9.030;2024-02-26T10:43:24;18.10;54.40
3954;DHT22;1991;48.682;9.030;2024-02-26T10:45:50;18.10;54.80
3954;DHT22;1991;48.682;9.030;2024-02-26T10:48:16;18.50;55.00
3954;DHT22;1991;48.682;9.030;2024-02-26T10:50:43;18.90;53.60
3954;DHT22;1991;48.682;9.030;2024-02-26T10:53:20;19.00;53.40
3954;DHT22;1991;48.682;9.030;2024-02-26T10:55:58;19.20;52.10
3954;DHT22;1991;48.682;9.030;2024-02-26T10:58:26;19.70;52.00
3954;DHT22;1991;48.682;9.030;2024-02-26T11:00:52;21.00;51.10
3954;DHT22;1991;48.682;9.030;2024-02-26T11:03:19;22.20;49.50
3954;DHT22;1991;48.682;9.030;2024-02-26T11:05:49;23.30;47.10
3954;DHT22;1991;48.682;9.030;2024-02-26T11:08:17;24.60;45.90
3954;DHT22;1991;48.682;9.030;2024-02-26T11:10:43;26.20;43.00
3954;DHT22;1991;48.682;9.030;2024-02-26T11:13:11;27.40;41.70
3954;DHT22;1991;48.682;9.030;2024-02-26T11:15:38;27.20;39.80
3954;DHT22;1991;48.682;9.030;2024-02-26T11:18:05;26.80;38.80
3954;DHT22;1991;48.682;9.030;2024-02-26T11:20:32;26.30;39.10
3954;DHT22;1991;48.682;9.030;2024-02-26T11:22:58;25.40;39.40
3954;DHT22;1991;48.682;9.030;2024-02-26T11:25:24;23.70;41.70
3954;DHT22;1991;48.682;9.030;2024-02-26T11:28:00;22.80;42.60
3954;DHT22;1991;48.682;9.030;2024-02-26T11:30:30;22.40;43.30
3954;DHT22;1991;48.682;9.030;2024-02-26T11:32:56;21.70;43.60
3954;DHT22;1991;48.682;9.030;2024-02-26T11:35:23;21.20;45.00
3954;DHT22;1991;48.682;9.030;2024-02-26T11:37:55;21.50;44.40
3954;DHT22;1991;48.682;9.030;2024-02-26T11:40:25;21.80;44.40
3954;DHT22;1991;48.682;9.030;2024-02-26T11:42:51;21.40;44.40
3954;DHT22;1991;48.682;9.030;2024-02-26T11:50:41;20.90;45.90
3954;DHT22;1991;48.682;9.030;2024-02-26T11:53:26;20.30;45.70
3954;DHT22;1991;48.682;9.030;2024-02-26T11:58:43;19.00;48.20
3954;DHT22;1991;48.682;9.030;2024-02-26T12:04:04;18.00;50.10
3954;DHT22;1991;48.682;9.030;2024-02-26T12:06:30;17.50;51.20
3954;DHT22;1991;48.682;9.030;2024-02-26T12:08:56;17.00;52.10
3954;DHT22;1991;48.682;9.030;2024-02-26T12:11:22;16.60;52.80
3954;DHT22;1991;48.682;9.030;2024-02-26T12:13:48;16.40;53.60
3954;DHT22;1991;48.682;9.030;2024-02-26T12:16:36;16.10;54.20
3954;DHT22;1991;48.682;9.030;2024-02-26T12:19:09;16.20;54.90
3954;DHT22;1991;48.682;9.030;2024-02-26T12:21:36;16.20;54.20
3954;DHT22;1991;48.682;9.030;2024-02-26T12:24:12;16.20;54.80
3954;DHT22;1991;48.682;9.030;2024-02-26T12:26:39;16.70;54.70
3954;DHT22;1991;48.682;9.030;2024-02-26T12:29:05;17.70;53.40
3954;DHT22;1991;48.682;9.030;2024-02-26T12:31:32;19.10;50.90
3954;DHT22;1991;48.682;9.030;2024-02-26T12:33:59;20.20;49.90
3954;DHT22;1991;48.682;9.030;2024-02-26T12:36:25;22.00;46.70
3954;DHT22;1991;48.682;9.030;2024-02-26T12:38:51;23.70;44.90
3954;DHT22;1991;48.682;9.030;2024-02-26T12:41:17;24.00;43.00
3954;DHT22;1991;48.682;9.030;2024-02-26T12:43:43;25.20;42.70
3954;DHT22;1991;48.682;9.030;2024-02-26T12:46:08;25.70;41.70
3954;DHT22;1991;48.682;9.030;2024-02-26T12:48:35;24.20;40.70
3954;DHT22;1991;48.682;9.030;2024-02-26T12:51:00;23.00;42.90
3954;DHT22;1991;48.682;9.030;2024-02-26T12:53:27;22.40;44.40
3954;DHT22;1991;48.682;9.030;2024-02-26T12:55:54;22.40;45.40
3954;DHT22;1991;48.682;9.030;2024-02-26T12:58:21;22.40;45.00
3954;DHT22;1991;48.682;9.030;2024-02-26T13:00:51;22.80;44.30
3954;DHT22;1991;48.682;9.030;2024-02-26T13:03:16;23.50;44.20
3954;DHT22;1991;48.682;9.030;2024-02-26T13:05:42;24.10;43.10
3954;DHT22;1991;48.682;9.030;2024-02-26T13:08:08;24.40;42.90
3954;DHT22;1991;48.682;9.030;2024-02-26T13:10:34;25.10;42.10
3954;DHT22;1991;48.682;9.030;2024-02-26T13:13:02;25.70;41.30
3954;DHT22;1991;48.682;9.030;2024-02-26T13:15:28;26.40;40.90
3954;DHT22;1991;48.682;9.030;2024-02-26T13:17:53;26.90;41.00
3954;DHT22;1991;48.682;9.030;2024-02-26T13:20:28;27.70;39.60
3954;DHT22;1991;48.682;9.030;2024-02-26T13:23:01;27.80;38.80
3954;DHT22;1991;48.682;9.030;2024-02-26T13:25:27;28.40;38.50
3954;DHT22;1991;48.682;9.030;2024-02-26T13:27:52;28.30;38.10
3954;DHT22;1991;48.682;9.030;2024-02-26T13:30:18;27.90;38.00
3954;DHT22;1991;48.682;9.030;2024-02-26T13:32:44;27.80;39.00
3954;DHT22;1991;48.682;9.030;2024-02-26T13:35:12;28.50;38.30
3954;DHT22;1991;48.682;9.030;2024-02-26T13:37:39;28.80;37.40
3954;DHT22;1991;48.682;9.030;2024-02-26T13:40:09;28.10;37.40
3954;DHT22;1991;48.682;9.030;2024-02-26T13:42:35;27.10;38.30
3954;DHT22;1991;48.682;9.030;2024-02-26T13:45:01;25.80;39.40
3954;DHT22;1991;48.682;9.030;2024-02-26T13:47:27;24.50;40.90
3954;DHT22;1991;48.682;9.030;2024-02-26T13:49:53;23.70;42.00
3954;DHT22;1991;48.682;9.030;2024-02-26T13:52:19;23.30;42.60
3954;DHT22;1991;48.682;9.030;2024-02-26T13:54:46;23.60;42.80
3954;DHT22;1991;48.682;9.030;2024-02-26T13:57:11;24.60;42.20
3954;DHT22;1991;48.682;9.030;2024-02-26T13:59:37;26.60;40.90
3954;DHT22;1991;48.682;9.030;2024-02-26T14:02:03;27.60;39.40
3954;DHT22;1991;48.682;9.030;2024-02-26T14:04:29;27.80;38.60
3954;DHT22;1991;48.682;9.030;2024-02-26T14:06:55;27.40;38.50
3954;DHT22;1991;48.682;9.030;2024-02-26T14:09:20;27.30;39.30
3954;DHT22;1991;48.682;9.030;2024-02-26T14:11:46;27.50;38.80
3954;DHT22;1991;48.682;9.030;2024-02-26T14:14:11;28.00;38.50
3954;DHT22;1991;48.682;9.030;2024-02-26T14:16:37;29.50;37.80
3954;DHT22;1991;48.682;9.030;2024-02-26T14:19:03;31.50;36.90
3954;DHT22;1991;48.682;9.030;2024-02-26T14:21:29;30.60;35.20
3954;DHT22;1991;48.682;9.030;2024-02-26T14:23:57;30.30;36.00
3954;DHT22;1991;48.682;9.030;2024-02-26T14:26:23;30.90;36.00
3954;DHT22;1991;48.682;9.030;2024-02-26T14:28:49;30.40;35.70
3954;DHT22;1991;48.682;9.030;2024-02-26T14:31:17;31.10;35.40
3954;DHT22;1991;48.682;9.030;2024-02-26T14:33:43;29.80;35.20
3954;DHT22;1991;48.682;9.030;2024-02-26T14:36:09;28.70;36.80
3954;DHT22;1991;48.682;9.030;2024-02-26T14:38:35;27.30;37.30
3954;DHT22;1991;48.682;9.030;2024-02-26T14:41:01;25.80;38.40
3954;DHT22;1991;48.682;9.030;2024-02-26T14:43:27;24.40;40.10
3954;DHT22;1991;48.682;9.030;2024-02-26T14:45:53;23.40;41.00
3954;DHT22;1991;48.682;9.030;2024-02-26T14:48:18;22.80;42.20
3954;DHT22;1991;48.682;9.030;2024-02-26T14:50:44;22.40;43.00
3954;DHT22;1991;48.682;9.030;2024-02-26T14:53:10;21.80;43.80
3954;DHT22;1991;48.682;9.030;2024-02-26T14:55:35;20.90;44.90
3954;DHT22;1991;48.682;9.030;2024-02-26T14:58:01;20.10;46.90
3954;DHT22;1991;48.682;9.030;2024-02-26T15:00:26;19.40;47.30
3954;DHT22;1991;48.682;9.030;2024-02-26T15:02:52;18.60;49.50
3954;DHT22;1991;48.682;9.030;2024-02-26T15:05:20;18.10;50.80
3954;DHT22;1991;48.682;9.030;2024-02-26T15:07:45;17.70;50.90
3954;DHT22;1991;48.682;9.030;2024-02-26T15:10:11;17.40;51.30
3954;DHT22;1991;48.682;9.030;2024-02-26T15:12:37;17.10;53.00
3954;DHT22;1991;48.682;9.030;2024-02-26T15:15:03;17.00;52.50
3954;DHT22;1991;48.682;9.030;2024-02-26T15:17:29;16.90;53.00
3954;DHT22;1991;48.682;9.030;2024-02-26T15:19:57;16.70;53.90
3954;DHT22;1991;48.682;9.030;2024-02-26T15:22:24;16.40;54.80
3954;DHT22;1991;48.682;9.030;2024-02-26T15:24:50;16.10;54.90
3954;DHT22;1991;48.682;9.030;2024-02-26T15:27:15;15.90;55.80
3954;DHT22;1991;48.682;9.030;2024-02-26T15:29:42;15.80;56.20
3954;DHT22;1991;48.682;9.030;2024-02-26T15:32:08;15.50;56.60
3954;DHT22;1991;48.682;9.030;2024-02-26T15:34:33;15.20;57.30
3954;DHT22;1991;48.682;9.030;2024-02-26T15:36:59;15.00;59.10
3954;DHT22;1991;48.682;9.030;2024-02-26T15:39:24;14.80;59.50
3954;DHT22;1991;48.682;9.030;2024-02-26T15:41:50;14.60;59.80
3954;DHT22;1991;48.682;9.030;2024-02-26T15:44:15;14.50;59.40
3954;DHT22;1991;48.682;9.030;2024-02-26T15:46:41;14.40;59.50
3954;DHT22;1991;48.682;9.030;2024-02-26T15:49:07;14.20;60.10
3954;DHT22;1991;48.682;9.030;2024-02-26T15:51:33;14.00;60.60
3954;DHT22;1991;48.682;9.030;2024-02-26T15:53:59;13.90;61.30
3954;DHT22;1991;48.682;9.030;2024-02-26T15:56:25;13.60;61.00
3954;DHT22;1991;48.682;9.030;2024-02-26T15:58:52;13.50;61.70
3954;DHT22;1991;48.682;9.030;2024-02-26T16:01:18;13.40;62.00
3954;DHT22;1991;48.682;9.030;2024-02-26T16:03:44;13.30;62.40
3954;DHT22;1991;48.682;9.030;2024-02-26T16:06:18;13.20;63.00
3954;DHT22;1991;48.682;9.030;2024-02-26T16:08:45;13.10;63.20
3954;DHT22;1991;48.682;9.030;2024-02-26T16:11:11;13.00;63.30
3954;DHT22;1991;48.682;9.030;2024-02-26T16:13:36;12.80;64.30
3954;DHT22;1991;48.682;9.030;2024-02-26T16:16:05;12.70;64.80